createdAt,value
2018-03-15T00:01:31.724Z,12.47
2018-03-15T00:03:59.384Z,11.33
2018-03-15T00:06:26.992Z,13.40
2018-03-15T00:08:54.625Z,13.53
2018-03-15T00:11:22.241Z,12.97
2018-03-15T00:13:49.876Z,13.70
2018-03-15T00:16:17.488Z,14.03
2018-03-15T00:18:45.126Z,13.53
2018-03-15T00:21:12.742Z,14.50
2018-03-15T00:23:40.378Z,14.90
2018-03-15T00:26:07.990Z,15.00
2018-03-15T00:28:35.640Z,14.03
2018-03-15T00:31:03.257Z,15.70
2018-03-15T00:33:30.868Z,14.23
2018-03-15T00:35:58.585Z,15.43
2018-03-15T00:38:26.202Z,15.37
2018-03-15T00:40:53.841Z,15.57
2018-03-15T00:43:21.478Z,16.40
2018-03-15T00:45:49.154Z,16.50
2018-03-15T00:48:16.804Z,15.27
2018-03-15T00:50:44.469Z,15.33
2018-03-15T00:53:12.081Z,15.70
2018-03-15T00:55:39.717Z,15.80
2018-03-15T00:58:07.337Z,16.80
2018-03-15T01:00:34.988Z,16.37
2018-03-15T01:03:02.677Z,15.20
2018-03-15T01:05:30.288Z,15.83
2018-03-15T01:07:57.926Z,15.80
2018-03-15T01:10:25.567Z,16.00
2018-03-15T01:12:53.228Z,16.07
2018-03-15T01:15:20.840Z,16.50
2018-03-15T01:17:48.483Z,17.17
2018-03-15T01:20:16.109Z,17.53
2018-03-15T01:22:43.772Z,15.93
2018-03-15T01:25:11.445Z,17.10
2018-03-15T01:27:39.081Z,15.90
2018-03-15T01:30:06.758Z,16.37
2018-03-15T01:32:34.389Z,15.47
2018-03-15T01:35:02.099Z,17.43
2018-03-15T01:37:29.753Z,16.97
2018-03-15T01:39:57.416Z,15.40
2018-03-15T01:42:25.172Z,16.83
2018-03-15T01:44:52.849Z,16.47
2018-03-15T01:47:20.513Z,16.37
2018-03-15T01:49:48.156Z,16.10
2018-03-15T01:52:15.776Z,16.77
2018-03-15T01:54:43.412Z,14.93
2018-03-15T01:57:11.024Z,17.23
2018-03-15T01:59:38.650Z,17.13
2018-03-15T02:02:06.272Z,15.77
2018-03-15T02:04:33.941Z,17.40
2018-03-15T02:07:01.556Z,15.70
2018-03-15T02:09:29.273Z,16.53
2018-03-15T02:11:56.936Z,13.90
2018-03-15T02:14:24.592Z,15.43
2018-03-15T02:16:52.260Z,14.60
2018-03-15T02:19:19.916Z,15.40
2018-03-15T02:21:47.539Z,16.73
2018-03-15T02:24:15.161Z,16.27
2018-03-15T02:26:42.905Z,14.70
2018-03-15T02:29:10.611Z,16.13
2018-03-15T02:31:38.337Z,17.27
2018-03-15T02:34:05.948Z,15.70
2018-03-15T02:36:33.662Z,14.10
2018-03-15T02:39:01.326Z,15.43
2018-03-15T02:41:28.976Z,16.03
2018-03-15T02:43:56.645Z,14.20
2018-03-15T02:46:24.313Z,16.13
2018-03-15T02:48:51.944Z,15.63
2018-03-15T02:51:19.638Z,14.47
2018-03-15T02:53:47.296Z,15.70
2018-03-15T02:56:14.917Z,15.17
2018-03-15T02:58:42.615Z,15.60
2018-03-15T03:01:10.389Z,15.50
2018-03-15T03:03:38.048Z,16.13
2018-03-15T03:06:05.651Z,16.33
2018-03-15T03:08:33.293Z,13.70
2018-03-15T03:11:00.900Z,14.33
2018-03-15T03:13:28.533Z,13.47
2018-03-15T03:15:56.159Z,15.03
2018-03-15T03:18:23.815Z,16.20
2018-03-15T03:20:51.482Z,14.07
2018-03-15T03:23:19.143Z,12.90
2018-03-15T03:25:46.813Z,16.23
2018-03-15T03:28:14.429Z,17.37
2018-03-15T03:30:42.088Z,13.20
2018-03-15T03:33:09.792Z,14.50
2018-03-15T03:35:37.469Z,15.10
2018-03-15T03:38:05.118Z,15.90
2018-03-15T03:40:32.753Z,16.30
2018-03-15T03:43:00.453Z,11.20
2018-03-15T03:45:28.088Z,16.13
2018-03-15T03:47:55.708Z,13.80
2018-03-15T03:50:23.345Z,14.27
2018-03-15T03:52:51.001Z,13.77
2018-03-15T03:55:19.229Z,15.27
2018-03-15T03:57:46.941Z,14.97
2018-03-15T04:00:14.604Z,16.30
2018-03-15T04:02:42.263Z,14.90
2018-03-15T04:05:09.907Z,15.57
2018-03-15T04:07:37.517Z,17.50
2018-03-15T04:10:05.133Z,14.90
2018-03-15T04:12:32.772Z,15.70
2018-03-15T04:15:00.384Z,15.13
2018-03-15T04:17:28.031Z,18.00
2018-03-15T04:19:55.644Z,15.90
2018-03-15T04:22:23.355Z,15.03
2018-03-15T04:24:50.964Z,15.33
2018-03-15T04:27:18.693Z,16.83
2018-03-15T04:29:46.301Z,13.50
2018-03-15T04:32:13.935Z,16.90
2018-03-15T04:34:41.544Z,17.70
2018-03-15T04:37:09.236Z,15.63
2018-03-15T04:39:36.901Z,14.40
2018-03-15T04:42:04.520Z,14.20
2018-03-15T04:44:32.157Z,17.27
2018-03-15T04:46:59.769Z,15.73
2018-03-15T04:49:27.406Z,16.00
2018-03-15T04:51:55.022Z,15.67
2018-03-15T04:54:22.652Z,16.67
2018-03-15T04:56:50.265Z,15.70
2018-03-15T04:59:17.913Z,14.63
2018-03-15T05:01:45.531Z,16.67
2018-03-15T05:04:13.214Z,14.13
2018-03-15T05:06:40.884Z,15.87
2018-03-15T05:09:08.671Z,12.70
2018-03-15T05:11:36.307Z,12.60
2018-03-15T05:14:03.962Z,15.10
2018-03-15T05:16:31.572Z,14.17
2018-03-15T05:18:59.176Z,14.20
2018-03-15T05:21:26.817Z,13.00
2018-03-15T05:23:54.465Z,14.57
2018-03-15T05:26:22.184Z,16.10
2018-03-15T05:28:49.853Z,12.50
2018-03-15T05:31:17.514Z,12.43
2018-03-15T05:33:45.571Z,13.50
2018-03-15T05:36:13.353Z,12.67
2018-03-15T05:38:40.972Z,12.70
2018-03-15T05:41:08.669Z,11.83
2018-03-15T05:43:36.284Z,12.47
2018-03-15T05:46:04.000Z,12.00
2018-03-15T05:48:31.666Z,10.60
2018-03-15T05:50:59.319Z,14.23
2018-03-15T05:53:26.983Z,10.20
2018-03-15T05:55:54.813Z,10.83
2018-03-15T05:58:22.453Z,11.00
2018-03-15T06:00:50.066Z,11.00
2018-03-15T06:03:17.698Z,8.57
2018-03-15T06:05:45.399Z,10.23
2018-03-15T06:08:13.274Z,10.90
2018-03-15T06:10:40.929Z,10.23
2018-03-15T06:13:09.049Z,9.80
2018-03-15T06:15:36.669Z,10.07
2018-03-15T06:18:04.380Z,8.10
2018-03-15T06:20:31.988Z,10.27
2018-03-15T06:22:59.755Z,9.43
2018-03-15T06:25:27.529Z,8.03
2018-03-15T06:27:55.400Z,7.77
2018-03-15T06:30:23.062Z,9.20
2018-03-15T06:32:50.685Z,10.00
2018-03-15T06:35:18.385Z,8.87
2018-03-15T06:37:46.002Z,6.60
2018-03-15T06:40:13.629Z,8.33
2018-03-15T06:42:41.232Z,9.07
2018-03-15T06:45:08.855Z,7.77
2018-03-15T06:47:36.466Z,8.10
2018-03-15T06:50:04.105Z,8.43
2018-03-15T06:52:31.822Z,8.23
2018-03-15T06:54:59.448Z,8.50
2018-03-15T06:57:27.143Z,8.30
2018-03-15T06:59:54.748Z,5.63
2018-03-15T07:02:22.381Z,7.30
2018-03-15T07:04:50.032Z,6.80
2018-03-15T07:07:17.692Z,7.17
2018-03-15T07:09:45.290Z,7.67
2018-03-15T07:12:13.020Z,7.47
2018-03-15T07:14:40.620Z,7.70
2018-03-15T07:17:08.265Z,7.37
2018-03-15T07:19:35.904Z,6.50
2018-03-15T07:22:03.532Z,7.50
2018-03-15T07:24:31.141Z,7.20
2018-03-15T07:26:58.768Z,7.90
2018-03-15T07:29:26.453Z,7.00
2018-03-15T07:31:54.085Z,7.50
2018-03-15T07:34:21.725Z,6.77
2018-03-15T07:36:49.344Z,7.40
2018-03-15T07:39:17.064Z,6.53
2018-03-15T07:41:44.664Z,7.20
2018-03-15T07:44:12.269Z,8.10
2018-03-15T07:46:39.986Z,6.90
2018-03-15T07:49:07.583Z,7.47
2018-03-15T07:51:35.183Z,4.20
2018-03-15T07:54:02.821Z,6.20
2018-03-15T07:56:30.433Z,5.50
2018-03-15T07:58:58.059Z,7.60
2018-03-15T08:01:25.765Z,5.97
2018-03-15T08:03:53.387Z,7.50
2018-03-15T08:06:21.001Z,6.27
2018-03-15T08:08:48.661Z,5.20
2018-03-15T08:11:16.308Z,5.47
2018-03-15T08:13:43.937Z,5.53
2018-03-15T08:16:11.548Z,8.03
2018-03-15T08:18:39.157Z,6.40
2018-03-15T08:21:06.793Z,8.60
2018-03-15T08:23:34.405Z,7.47
2018-03-15T08:26:02.033Z,6.83
2018-03-15T08:28:29.645Z,7.63
2018-03-15T08:30:57.281Z,7.60
2018-03-15T08:33:24.945Z,6.73
2018-03-15T08:35:52.741Z,7.03
2018-03-15T08:38:20.404Z,7.50
2018-03-15T08:40:48.067Z,7.77
2018-03-15T08:43:15.667Z,8.00
2018-03-15T08:45:43.305Z,6.67
2018-03-15T08:48:10.929Z,9.37
2018-03-15T08:50:38.564Z,8.60
2018-03-15T08:53:06.182Z,9.87
2018-03-15T08:55:33.837Z,8.70
2018-03-15T08:58:01.448Z,9.60
2018-03-15T09:00:29.095Z,10.00
2018-03-15T09:02:56.711Z,11.30
2018-03-15T09:05:24.329Z,10.67
2018-03-15T09:07:51.969Z,11.77
2018-03-15T09:10:19.605Z,10.00
2018-03-15T09:12:47.260Z,9.20
2018-03-15T09:15:14.874Z,8.53
2018-03-15T09:17:42.506Z,9.53
2018-03-15T09:20:10.152Z,10.00
2018-03-15T09:22:37.798Z,11.10
2018-03-15T09:25:05.417Z,8.40
2018-03-15T09:27:33.045Z,9.00
2018-03-15T09:30:00.663Z,8.73
2018-03-15T09:32:28.365Z,7.90
2018-03-15T09:34:56.039Z,7.40
2018-03-15T09:37:23.693Z,6.30
2018-03-15T09:39:51.320Z,7.13
2018-03-15T09:42:18.991Z,6.57
2018-03-15T09:44:47.186Z,7.40
2018-03-15T09:47:14.822Z,7.80
2018-03-15T09:49:42.517Z,6.57
2018-03-15T09:52:10.140Z,7.73
2018-03-15T09:54:37.836Z,5.63
2018-03-15T09:57:05.476Z,4.20
2018-03-15T09:59:33.131Z,6.23
2018-03-15T10:02:00.833Z,7.67
2018-03-15T10:04:28.597Z,6.47
2018-03-15T10:06:56.256Z,6.03
2018-03-15T10:09:23.915Z,5.60
2018-03-15T10:11:51.588Z,6.60
2018-03-15T10:14:19.255Z,6.47
2018-03-15T10:16:46.918Z,6.67
2018-03-15T10:19:14.565Z,6.80
2018-03-15T10:21:42.231Z,7.37
2018-03-15T10:24:09.948Z,6.90
2018-03-15T10:26:37.577Z,6.20
2018-03-15T10:29:05.216Z,7.07
2018-03-15T10:31:32.889Z,7.40
2018-03-15T10:34:00.528Z,6.27
2018-03-15T10:36:28.180Z,6.47
2018-03-15T10:38:55.792Z,8.33
2018-03-15T10:41:23.530Z,4.53
2018-03-15T10:43:51.200Z,6.63
2018-03-15T10:46:18.841Z,6.70
2018-03-15T10:48:46.481Z,8.13
2018-03-15T10:51:14.141Z,6.70
2018-03-15T10:53:41.761Z,5.80
2018-03-15T10:56:09.517Z,6.80
2018-03-15T10:58:37.145Z,7.37
2018-03-15T11:01:06.715Z,8.30
2018-03-15T11:03:40.016Z,7.00
2018-03-15T11:06:10.395Z,7.33
2018-03-15T11:08:38.016Z,7.83
2018-03-15T11:11:15.257Z,7.60
2018-03-15T11:13:42.911Z,6.60
2018-03-15T11:16:10.587Z,7.30
2018-03-15T11:18:38.217Z,8.13
2018-03-15T11:21:05.877Z,7.53
2018-03-15T11:23:33.575Z,7.90
2018-03-15T11:26:01.229Z,8.10
2018-03-15T11:28:28.879Z,8.77
2018-03-15T11:30:56.560Z,10.20
2018-03-15T11:33:24.221Z,7.20
2018-03-15T11:35:51.853Z,9.93
2018-03-15T11:38:19.509Z,7.30
2018-03-15T11:40:47.127Z,6.30
2018-03-15T11:43:14.869Z,8.60
2018-03-15T11:45:42.504Z,7.10
2018-03-15T11:48:10.161Z,7.40
2018-03-15T11:50:37.831Z,7.57
2018-03-15T11:53:05.459Z,8.57
2018-03-15T11:55:33.193Z,7.50
2018-03-15T11:58:00.954Z,6.67
2018-03-15T12:00:28.592Z,7.30
2018-03-15T12:02:56.245Z,5.07
2018-03-15T12:05:23.873Z,7.17
2018-03-15T12:07:51.605Z,8.80
2018-03-15T12:10:19.264Z,6.10
2018-03-15T12:12:46.897Z,7.03
2018-03-15T12:15:14.535Z,6.33
2018-03-15T12:17:42.257Z,7.00
2018-03-15T12:20:09.912Z,7.60
2018-03-15T12:22:37.516Z,7.00
2018-03-15T12:25:05.145Z,6.93
2018-03-15T12:27:32.744Z,7.93
2018-03-15T12:30:00.373Z,6.47
2018-03-15T12:32:28.019Z,8.70
2018-03-15T12:34:55.684Z,6.80
2018-03-15T12:37:23.345Z,7.33
2018-03-15T12:39:50.988Z,6.27
2018-03-15T12:42:18.607Z,8.40
2018-03-15T12:44:46.237Z,6.00
2018-03-15T12:47:13.904Z,7.00
2018-03-15T12:49:41.538Z,6.23
2018-03-15T12:52:09.140Z,4.60
2018-03-15T12:54:36.779Z,8.10
2018-03-15T12:57:04.409Z,7.27
2018-03-15T12:59:32.112Z,8.40
2018-03-15T13:01:59.777Z,5.80
2018-03-15T13:04:27.436Z,7.40
2018-03-15T13:06:55.064Z,7.30
2018-03-15T13:09:22.668Z,7.93
2018-03-15T13:11:50.302Z,7.50
2018-03-15T13:14:17.907Z,6.37
2018-03-15T13:16:45.653Z,6.13
2018-03-15T13:19:13.313Z,7.13
2018-03-15T13:21:40.967Z,7.13
2018-03-15T13:24:08.572Z,7.80
2018-03-15T13:26:36.301Z,6.73
2018-03-15T13:29:03.966Z,7.30
2018-03-15T13:31:31.598Z,7.13
2018-03-15T13:33:59.218Z,7.70
2018-03-15T13:36:26.844Z,8.00
2018-03-15T13:38:54.471Z,8.37
2018-03-15T13:41:22.172Z,7.87
2018-03-15T13:43:49.874Z,9.40
2018-03-15T13:46:17.500Z,8.17
2018-03-15T13:48:45.133Z,9.83
2018-03-15T13:51:12.741Z,9.10
2018-03-15T13:53:40.372Z,10.00
2018-03-15T13:56:08.054Z,8.77
2018-03-15T13:58:35.684Z,8.70
2018-03-15T14:01:03.378Z,8.93
2018-03-15T14:03:31.008Z,9.33
2018-03-15T14:05:58.701Z,8.60
2018-03-15T14:08:26.561Z,7.87
2018-03-15T14:10:54.235Z,8.70
2018-03-15T14:13:21.886Z,8.57
2018-03-15T14:15:49.570Z,7.17
2018-03-15T14:18:17.172Z,8.80
2018-03-15T14:20:44.800Z,7.47
2018-03-15T14:23:12.441Z,8.47
2018-03-15T14:25:40.109Z,8.60
2018-03-15T14:28:07.769Z,10.00
2018-03-15T14:30:35.409Z,8.00
2018-03-15T14:33:03.013Z,7.07
2018-03-15T14:35:30.744Z,7.60
2018-03-15T14:37:58.351Z,6.43
2018-03-15T14:40:25.985Z,7.00
2018-03-15T14:42:53.579Z,6.33
2018-03-15T14:45:21.634Z,6.73
2018-03-15T14:47:49.241Z,7.20
2018-03-15T14:50:16.873Z,6.40
2018-03-15T14:52:44.538Z,6.33
2018-03-15T14:55:12.129Z,5.70
2018-03-15T14:57:39.816Z,6.00
2018-03-15T15:00:07.450Z,5.73
2018-03-15T15:02:35.063Z,6.37
2018-03-15T15:05:02.718Z,6.60
2018-03-15T15:07:30.365Z,6.63
2018-03-15T15:09:58.092Z,6.93
2018-03-15T15:12:25.723Z,5.67
2018-03-15T15:14:53.361Z,4.97
2018-03-15T15:17:20.988Z,7.07
2018-03-15T15:19:48.601Z,6.27
2018-03-15T15:22:16.251Z,6.70
2018-03-15T15:24:43.913Z,7.33
2018-03-15T15:27:11.559Z,6.03
2018-03-15T15:29:39.178Z,6.07
2018-03-15T15:32:06.810Z,6.17
2018-03-15T15:34:34.433Z,5.63
2018-03-15T15:37:02.116Z,5.83
2018-03-15T15:39:29.789Z,5.87
2018-03-15T15:41:57.407Z,5.20
2018-03-15T15:44:25.008Z,6.17
2018-03-15T15:46:52.628Z,6.67
2018-03-15T15:49:20.993Z,5.60
2018-03-15T15:51:48.713Z,5.73
2018-03-15T15:54:16.321Z,6.70
2018-03-15T15:56:44.044Z,6.73
2018-03-15T15:59:11.697Z,5.50
2018-03-15T16:01:39.299Z,7.63
2018-03-15T16:04:06.924Z,5.93
2018-03-15T16:06:34.528Z,6.50
2018-03-15T16:09:02.246Z,7.13
2018-03-15T16:11:29.853Z,6.23
2018-03-15T16:13:57.489Z,6.10
2018-03-15T16:16:25.136Z,6.40
2018-03-15T16:18:52.791Z,5.77
2018-03-15T16:21:20.411Z,5.03
2018-03-15T16:23:48.040Z,6.63
2018-03-15T16:26:15.685Z,5.93
2018-03-15T16:28:43.343Z,6.60
2018-03-15T16:31:10.936Z,7.00
2018-03-15T16:33:38.678Z,6.63
2018-03-15T16:36:06.289Z,8.83
2018-03-15T16:38:33.913Z,6.93
2018-03-15T16:41:01.515Z,6.80
2018-03-15T16:43:29.217Z,6.80
2018-03-15T16:45:56.819Z,6.77
2018-03-15T16:48:24.553Z,6.23
2018-03-15T16:50:52.249Z,5.33
2018-03-15T16:53:19.856Z,6.70
2018-03-15T16:55:47.531Z,6.83
2018-03-15T16:58:15.127Z,6.60
2018-03-15T17:00:42.865Z,7.03
2018-03-15T17:03:10.533Z,6.57
2018-03-15T17:05:38.155Z,6.80
2018-03-15T17:08:05.757Z,6.53
2018-03-15T17:10:33.378Z,7.07
2018-03-15T17:13:01.076Z,7.00
2018-03-15T17:15:28.703Z,8.20
2018-03-15T17:17:56.299Z,6.60
2018-03-15T17:20:23.929Z,6.70
2018-03-15T17:22:51.720Z,7.80
2018-03-15T17:25:19.385Z,7.80
2018-03-15T17:27:46.997Z,7.93
2018-03-15T17:30:14.672Z,8.77
2018-03-15T17:32:42.273Z,7.03
2018-03-15T17:35:09.936Z,7.33
2018-03-15T17:37:37.596Z,8.50
2018-03-15T17:40:05.196Z,6.90
2018-03-15T17:42:32.924Z,7.70
2018-03-15T17:45:00.537Z,7.60
2018-03-15T17:47:28.252Z,8.07
2018-03-15T17:49:56.012Z,7.60
2018-03-15T17:52:23.668Z,7.70
2018-03-15T17:54:51.348Z,7.20
2018-03-15T17:57:18.971Z,7.47
2018-03-15T17:59:46.576Z,7.10
2018-03-15T18:02:14.287Z,7.10
2018-03-15T18:04:41.905Z,7.33
2018-03-15T18:07:09.557Z,7.37
2018-03-15T18:09:37.171Z,8.20
2018-03-15T18:12:04.889Z,9.10
2018-03-15T18:14:32.501Z,7.03
2018-03-15T18:17:00.108Z,7.67
2018-03-15T18:19:27.736Z,6.90
2018-03-15T18:21:55.418Z,6.65
2018-03-15T18:24:23.044Z,9.00
2018-03-15T18:26:50.757Z,7.50
2018-03-15T18:29:18.380Z,7.63
2018-03-15T18:31:46.090Z,6.97
2018-03-15T18:34:13.725Z,7.23
2018-03-15T18:36:41.437Z,7.60
2018-03-15T18:39:09.062Z,7.10
2018-03-15T18:41:36.664Z,8.13
2018-03-15T18:44:04.387Z,8.47
2018-03-15T18:46:32.061Z,7.20
2018-03-15T18:48:59.727Z,7.50
2018-03-15T18:51:27.380Z,7.30
2018-03-15T18:53:55.017Z,7.63
2018-03-15T18:56:22.712Z,7.73
2018-03-15T18:58:50.364Z,8.67
2018-03-15T19:01:18.003Z,8.40
2018-03-15T19:03:45.595Z,8.70
2018-03-15T19:06:13.219Z,8.37
2018-03-15T19:08:40.853Z,8.77
2018-03-15T19:11:08.485Z,8.57
2018-03-15T19:13:36.299Z,8.30
2018-03-15T19:16:03.936Z,8.43
2018-03-15T19:18:31.565Z,7.73
2018-03-15T19:20:59.236Z,9.10
2018-03-15T19:23:27.769Z,8.53
2018-03-15T19:25:55.408Z,8.17
2018-03-15T19:28:23.020Z,9.00
2018-03-15T19:30:50.698Z,9.47
2018-03-15T19:33:18.373Z,8.93
2018-03-15T19:35:45.999Z,9.70
2018-03-15T19:38:13.692Z,9.20
2018-03-15T19:40:41.364Z,9.80
2018-03-15T19:43:09.034Z,9.53
2018-03-15T19:45:36.675Z,9.73
2018-03-15T19:48:05.201Z,9.37
2018-03-15T19:50:32.814Z,7.97
2018-03-15T19:53:00.460Z,7.57
2018-03-15T19:55:28.147Z,8.50
2018-03-15T19:57:55.812Z,8.00
2018-03-15T20:00:23.435Z,7.67
2018-03-15T20:02:51.077Z,9.00
2018-03-15T20:05:18.705Z,9.67
2018-03-15T20:07:46.337Z,6.43
2018-03-15T20:10:13.985Z,7.90
2018-03-15T20:12:41.695Z,6.77
2018-03-15T20:15:09.352Z,8.20
2018-03-15T20:17:37.533Z,8.60
2018-03-15T20:20:05.165Z,7.67
2018-03-15T20:22:38.540Z,6.80
2018-03-15T20:25:06.171Z,8.30
2018-03-15T20:27:39.518Z,8.70
2018-03-15T20:30:07.245Z,8.20
2018-03-15T20:32:40.583Z,8.50
2018-03-15T20:35:08.213Z,8.80
2018-03-15T20:37:35.885Z,8.53
2018-03-15T20:40:09.005Z,9.70
2018-03-15T20:42:36.617Z,9.50
2018-03-15T20:45:04.240Z,8.87
2018-03-15T20:47:37.451Z,9.30
2018-03-15T20:50:05.084Z,8.50
2018-03-15T20:52:32.701Z,8.90
2018-03-15T20:55:00.316Z,9.77
2018-03-15T20:57:27.979Z,10.27
2018-03-15T20:59:55.746Z,8.13
2018-03-15T21:02:23.396Z,8.90
2018-03-15T21:04:51.071Z,9.07
2018-03-15T21:07:18.735Z,10.97
2018-03-15T21:09:46.336Z,10.23
2018-03-15T21:12:13.953Z,6.37
2018-03-15T21:14:41.630Z,10.60
2018-03-15T21:17:09.256Z,11.33
2018-03-15T21:19:36.874Z,10.17
2018-03-15T21:22:04.607Z,11.20
2018-03-15T21:24:32.231Z,9.90
2018-03-15T21:26:59.962Z,10.73
2018-03-15T21:29:27.700Z,11.10
2018-03-15T21:31:55.313Z,10.70
2018-03-15T21:34:23.003Z,9.90
2018-03-15T21:36:50.701Z,10.43
2018-03-15T21:39:18.327Z,11.13
2018-03-15T21:41:45.939Z,10.27
2018-03-15T21:44:13.564Z,9.87
2018-03-15T21:46:41.236Z,10.60
2018-03-15T21:49:08.872Z,12.20
2018-03-15T21:51:36.480Z,12.40
2018-03-15T21:54:04.113Z,9.87
2018-03-15T21:56:31.798Z,12.07
2018-03-15T21:58:59.448Z,11.33
2018-03-15T22:01:27.055Z,12.60
2018-03-15T22:03:54.689Z,12.43
2018-03-15T22:06:22.339Z,12.70
2018-03-15T22:08:50.420Z,12.10
2018-03-15T22:11:18.039Z,13.60
2018-03-15T22:13:45.649Z,13.60
2018-03-15T22:16:13.293Z,13.47
2018-03-15T22:18:40.909Z,9.90
2018-03-15T22:21:08.540Z,12.93
2018-03-15T22:23:36.189Z,12.90
2018-03-15T22:26:03.873Z,14.13
2018-03-15T22:28:31.485Z,11.97
2018-03-15T22:30:59.122Z,12.73
2018-03-15T22:33:26.727Z,15.50
2018-03-15T22:35:54.362Z,12.77
2018-03-15T22:38:21.973Z,13.30
2018-03-15T22:40:49.603Z,13.50
2018-03-15T22:43:17.221Z,12.87
2018-03-15T22:45:44.851Z,12.50
2018-03-15T22:48:12.509Z,14.43
2018-03-15T22:50:40.165Z,12.60
2018-03-15T22:53:07.772Z,10.83
2018-03-15T22:55:35.419Z,8.97
2018-03-15T22:58:03.040Z,12.60
2018-03-15T23:00:30.659Z,14.77
2018-03-15T23:02:58.313Z,14.70
2018-03-15T23:05:25.934Z,14.90
2018-03-15T23:07:53.567Z,14.30
2018-03-15T23:10:21.176Z,13.50
2018-03-15T23:12:48.819Z,14.60
2018-03-15T23:15:16.493Z,14.37
2018-03-15T23:17:44.123Z,14.10
2018-03-15T23:20:11.793Z,14.10
2018-03-15T23:22:39.410Z,14.70
2018-03-15T23:25:07.012Z,14.43
2018-03-15T23:27:34.625Z,14.07
2018-03-15T23:30:02.262Z,12.83
2018-03-15T23:32:30.690Z,13.70
2018-03-15T23:34:58.403Z,12.83
2018-03-15T23:37:26.013Z,13.37
2018-03-15T23:39:53.639Z,13.93
2018-03-15T23:42:21.247Z,12.93
2018-03-15T23:44:48.877Z,11.57
2018-03-15T23:47:16.515Z,13.47
2018-03-15T23:49:44.292Z,11.67
2018-03-15T23:52:11.909Z,13.17
2018-03-15T23:54:39.609Z,11.00
2018-03-15T23:57:07.280Z,14.67
2018-03-15T23:59:34.892Z,13.13
